createdAt,value
2022-10-19T00:01:20.349Z,0.85
2022-10-19T00:03:50.746Z,0.63
2022-10-19T00:06:26.466Z,0.60
2022-10-19T00:09:00.361Z,0.88
2022-10-19T00:11:28.859Z,0.60
2022-10-19T00:13:58.070Z,0.77
2022-10-19T00:21:26.385Z,0.73
2022-10-19T00:23:54.344Z,0.80
2022-10-19T00:26:22.269Z,0.85
2022-10-19T00:28:50.017Z,1.00
2022-10-19T00:31:18.428Z,0.77
2022-10-19T00:33:47.132Z,0.60
2022-10-19T00:36:20.917Z,0.63
2022-10-19T00:38:49.040Z,1.33
2022-10-19T00:41:18.521Z,0.67
2022-10-19T00:43:55.125Z,0.80
2022-10-19T00:46:23.656Z,0.70
2022-10-19T00:48:54.275Z,0.80
2022-10-19T00:51:24.006Z,0.70
2022-10-19T00:53:51.904Z,0.73
2022-10-19T00:56:19.654Z,0.70
2022-10-19T00:58:47.463Z,0.70
2022-10-19T01:01:18.832Z,0.70
2022-10-19T01:03:47.821Z,0.85
2022-10-19T01:06:17.851Z,0.73
2022-10-19T01:08:46.422Z,0.50
2022-10-19T01:11:35.588Z,0.80
2022-10-19T01:17:21.722Z,0.95
2022-10-19T01:20:43.257Z,0.60
2022-10-19T01:23:22.182Z,0.60
2022-10-19T01:28:50.364Z,0.60
2022-10-19T01:31:27.655Z,0.80
2022-10-19T01:34:06.121Z,0.73
2022-10-19T01:36:58.429Z,0.52
2022-10-19T01:40:00.416Z,0.60
2022-10-19T01:42:32.973Z,0.60
2022-10-19T01:45:07.333Z,0.65
2022-10-19T01:48:15.132Z,0.70
2022-10-19T01:51:00.453Z,0.45
2022-10-19T01:53:32.137Z,0.50
2022-10-19T01:56:02.960Z,0.63
2022-10-19T01:58:34.932Z,0.38
2022-10-19T02:01:07.423Z,0.50
2022-10-19T02:03:36.799Z,0.77
2022-10-19T02:06:07.482Z,0.60
2022-10-19T02:08:44.634Z,0.50
2022-10-19T02:11:12.352Z,0.60
2022-10-19T02:13:42.557Z,0.63
2022-10-19T02:16:16.458Z,0.63
2022-10-19T02:18:50.639Z,0.65
2022-10-19T02:21:19.039Z,0.57
2022-10-19T02:23:48.361Z,0.68
2022-10-19T02:26:18.917Z,0.68
2022-10-19T02:28:47.807Z,0.63
2022-10-19T02:31:15.524Z,0.70
2022-10-19T02:33:43.302Z,0.57
2022-10-19T02:36:10.819Z,0.70
2022-10-19T02:38:38.499Z,0.90
2022-10-19T02:41:24.695Z,0.80
2022-10-19T02:44:00.588Z,0.50
2022-10-19T02:46:31.023Z,0.50
2022-10-19T02:48:59.316Z,0.60
2022-10-19T02:51:41.273Z,0.68
2022-10-19T02:54:08.792Z,0.60
2022-10-19T02:56:36.293Z,0.73
2022-10-19T02:59:04.014Z,0.75
2022-10-19T03:01:31.528Z,1.40
2022-10-19T03:03:59.245Z,0.80
2022-10-19T03:06:26.931Z,0.80
2022-10-19T03:08:54.555Z,0.70
2022-10-19T03:11:22.181Z,0.70
2022-10-19T03:13:49.669Z,0.75
2022-10-19T03:16:17.106Z,0.65
2022-10-19T03:18:44.569Z,0.70
2022-10-19T03:21:13.726Z,0.70
2022-10-19T03:23:41.553Z,1.00
2022-10-19T03:26:14.415Z,0.80
2022-10-19T03:28:42.546Z,0.80
2022-10-19T03:31:10.374Z,0.80
2022-10-19T03:33:37.889Z,0.60
2022-10-19T03:36:35.869Z,0.80
2022-10-19T03:39:07.284Z,0.80
2022-10-19T03:41:36.516Z,0.70
2022-10-19T03:44:05.167Z,0.75
2022-10-19T03:46:33.112Z,0.50
2022-10-19T03:49:00.943Z,0.80
2022-10-19T03:51:31.123Z,0.70
2022-10-19T03:54:01.983Z,0.90
2022-10-19T03:56:32.082Z,1.15
2022-10-19T03:59:01.552Z,1.45
2022-10-19T04:01:33.002Z,0.70
2022-10-19T04:04:03.111Z,0.95
2022-10-19T04:06:35.404Z,0.68
2022-10-19T04:09:04.299Z,0.70
2022-10-19T04:11:33.534Z,0.80
2022-10-19T04:14:01.967Z,0.70
2022-10-19T04:16:31.399Z,0.60
2022-10-19T04:18:59.676Z,0.90
2022-10-19T04:21:33.415Z,0.98
2022-10-19T04:24:13.140Z,0.73
2022-10-19T04:26:45.833Z,0.98
2022-10-19T04:29:15.030Z,0.70
2022-10-19T04:31:43.127Z,0.98
2022-10-19T04:34:11.697Z,0.70
2022-10-19T04:36:39.223Z,1.02
2022-10-19T04:39:07.554Z,1.23
2022-10-19T04:41:35.491Z,0.90
2022-10-19T04:44:04.468Z,0.68
2022-10-19T04:46:32.073Z,0.90
2022-10-19T04:49:00.267Z,0.85
2022-10-19T04:51:27.868Z,0.68
2022-10-19T04:53:59.558Z,0.80
2022-10-19T04:56:28.202Z,0.70
2022-10-19T04:58:57.670Z,0.60
2022-10-19T05:01:26.881Z,0.65
2022-10-19T05:03:59.727Z,0.70
2022-10-19T05:06:28.245Z,0.80
2022-10-19T05:08:55.913Z,0.88
2022-10-19T05:11:23.412Z,0.60
2022-10-19T05:13:51.165Z,1.00
2022-10-19T05:16:21.199Z,0.80
2022-10-19T05:18:53.547Z,0.80
2022-10-19T05:21:21.963Z,0.70
2022-10-19T05:23:52.651Z,0.80
2022-10-19T05:26:23.044Z,0.93
2022-10-19T05:28:56.772Z,0.80
2022-10-19T05:31:28.119Z,0.75
2022-10-19T05:33:56.470Z,0.90
2022-10-19T05:36:26.317Z,0.60
2022-10-19T05:38:56.140Z,0.63
2022-10-19T05:41:25.772Z,0.60
2022-10-19T05:43:58.221Z,0.70
2022-10-19T05:46:27.364Z,0.75
2022-10-19T05:48:56.648Z,0.63
2022-10-19T05:51:25.794Z,0.98
2022-10-19T05:53:55.576Z,0.70
2022-10-19T05:56:26.941Z,0.75
2022-10-19T05:58:56.849Z,0.90
2022-10-19T06:01:24.996Z,0.80
2022-10-19T06:03:55.461Z,0.95
2022-10-19T06:06:24.230Z,0.88
2022-10-19T06:11:29.058Z,1.23
2022-10-19T06:13:59.455Z,0.75
2022-10-19T06:16:27.797Z,0.90
2022-10-19T06:18:56.693Z,0.82
2022-10-19T06:21:26.462Z,0.98
2022-10-19T06:23:58.901Z,0.75
2022-10-19T06:26:26.943Z,0.70
2022-10-19T06:28:57.972Z,0.90
2022-10-19T06:31:25.439Z,1.05
2022-10-19T06:33:53.772Z,0.70
2022-10-19T06:36:24.303Z,0.73
2022-10-19T06:38:53.249Z,0.70
2022-10-19T06:41:21.048Z,0.80
2022-10-19T06:43:52.884Z,1.42
2022-10-19T06:46:23.455Z,1.70
2022-10-19T06:48:52.535Z,1.23
2022-10-19T06:53:48.961Z,1.15
2022-10-19T06:56:19.353Z,1.02
2022-10-19T06:58:47.181Z,0.90
2022-10-19T07:01:14.833Z,0.93
2022-10-19T07:03:43.715Z,1.77
2022-10-19T07:06:13.114Z,2.17
2022-10-19T07:08:41.804Z,1.60
2022-10-19T07:11:16.200Z,1.00
2022-10-19T07:13:43.814Z,0.98
2022-10-19T07:16:17.909Z,0.75
2022-10-19T07:18:53.392Z,1.15
2022-10-19T07:21:23.177Z,1.00
2022-10-19T07:23:51.010Z,0.82
2022-10-19T07:26:26.578Z,0.90
2022-10-19T07:28:56.852Z,0.70
2022-10-19T07:31:25.787Z,0.80
2022-10-19T07:33:56.490Z,0.85
2022-10-19T07:36:25.453Z,0.90
2022-10-19T07:41:22.959Z,1.00
2022-10-19T07:43:51.956Z,0.90
2022-10-19T07:46:33.475Z,0.70
2022-10-19T07:49:01.126Z,0.88
2022-10-19T07:54:01.457Z,1.10
2022-10-19T07:56:29.282Z,0.93
2022-10-19T07:58:58.799Z,1.17
2022-10-19T08:01:31.996Z,1.30
2022-10-19T08:09:40.153Z,1.10
2022-10-19T08:12:04.396Z,1.05
2022-10-19T08:14:31.921Z,0.60
2022-10-19T08:16:59.975Z,0.60
2022-10-19T08:19:27.654Z,0.70
2022-10-19T08:21:55.155Z,1.08
2022-10-19T08:24:25.905Z,1.10
2022-10-19T08:26:53.711Z,1.15
2022-10-19T08:29:21.946Z,1.10
2022-10-19T08:31:49.845Z,0.83
2022-10-19T08:34:17.761Z,0.88
2022-10-19T08:36:45.931Z,0.90
2022-10-19T08:39:14.078Z,0.73
2022-10-19T08:41:59.546Z,0.80
2022-10-19T08:44:52.028Z,0.80
2022-10-19T08:47:38.029Z,0.60
2022-10-19T08:50:23.543Z,0.90
2022-10-19T08:53:00.588Z,0.88
2022-10-19T08:55:41.486Z,0.70
2022-10-19T08:58:20.965Z,0.60
2022-10-19T09:00:53.202Z,0.73
2022-10-19T09:04:02.505Z,0.70
2022-10-19T09:06:40.632Z,0.60
2022-10-19T09:09:13.100Z,0.60
2022-10-19T09:11:47.024Z,0.60
2022-10-19T09:14:18.698Z,0.95
2022-10-19T09:16:46.489Z,0.90
2022-10-19T09:19:29.363Z,0.70
2022-10-19T09:22:07.797Z,1.00
2022-10-19T09:24:48.289Z,0.98
2022-10-19T09:27:26.449Z,1.30
2022-10-19T09:29:57.976Z,1.50
2022-10-19T09:32:32.849Z,1.20
2022-10-19T09:35:03.777Z,1.10
2022-10-19T09:37:32.992Z,0.80
2022-10-19T09:40:01.906Z,0.82
2022-10-19T09:42:34.698Z,0.80
2022-10-19T09:45:29.157Z,0.90
2022-10-19T09:48:02.190Z,0.70
2022-10-19T09:50:34.836Z,1.20
2022-10-19T09:53:05.101Z,0.88
2022-10-19T09:55:43.172Z,0.88
2022-10-19T09:58:13.681Z,0.60
2022-10-19T10:00:42.922Z,0.65
2022-10-19T10:06:08.338Z,0.60
2022-10-19T10:08:38.832Z,0.60
2022-10-19T10:11:15.479Z,0.70
2022-10-19T10:13:48.622Z,0.50
2022-10-19T10:16:18.890Z,0.80
2022-10-19T10:18:55.598Z,0.70
2022-10-19T10:21:34.648Z,0.68
2022-10-19T10:24:07.158Z,0.70
2022-10-19T10:26:42.991Z,0.70
2022-10-19T10:29:37.899Z,0.50
2022-10-19T10:32:06.909Z,0.60
2022-10-19T10:37:29.573Z,0.80
2022-10-19T10:40:01.893Z,0.70
2022-10-19T10:42:42.340Z,0.70
2022-10-19T10:45:19.562Z,0.63
2022-10-19T10:47:48.522Z,0.70
2022-10-19T10:50:18.520Z,0.70
2022-10-19T10:53:04.320Z,1.13
2022-10-19T10:55:33.904Z,0.90
2022-10-19T10:58:26.873Z,0.70
2022-10-19T11:01:01.102Z,0.60
2022-10-19T11:03:34.014Z,0.55
2022-10-19T11:06:02.880Z,0.75
2022-10-19T11:08:57.048Z,0.52
2022-10-19T11:11:32.484Z,0.60
2022-10-19T11:14:05.020Z,0.70
2022-10-19T11:16:41.135Z,0.60
2022-10-19T11:19:25.054Z,0.50
2022-10-19T11:22:01.508Z,0.60
2022-10-19T11:24:48.776Z,0.90
2022-10-19T11:27:42.748Z,0.52
2022-10-19T11:30:21.612Z,0.70
2022-10-19T11:33:01.756Z,0.60
2022-10-19T11:35:29.169Z,0.70
2022-10-19T11:38:20.628Z,0.60
2022-10-19T11:41:22.341Z,0.88
2022-10-19T11:44:16.131Z,0.60
2022-10-19T11:47:07.478Z,0.57
2022-10-19T11:50:07.107Z,0.63
2022-10-19T11:53:11.534Z,0.60
2022-10-19T11:56:14.483Z,0.80
2022-10-19T11:58:58.905Z,0.70
2022-10-19T12:01:49.511Z,0.50
2022-10-19T12:04:35.708Z,0.77
2022-10-19T12:07:39.071Z,0.70
2022-10-19T12:10:13.043Z,0.55
2022-10-19T12:12:49.649Z,0.50
2022-10-19T12:15:21.058Z,1.05
2022-10-19T12:17:52.079Z,0.60
2022-10-19T12:20:44.887Z,0.88
2022-10-19T12:23:33.802Z,0.65
2022-10-19T12:28:34.058Z,1.35
2022-10-19T12:31:07.207Z,0.65
2022-10-19T12:33:47.894Z,0.90
2022-10-19T12:36:24.672Z,0.60
2022-10-19T12:39:17.006Z,0.60
2022-10-19T12:42:00.108Z,0.85
2022-10-19T12:44:27.585Z,0.70
2022-10-19T12:47:17.702Z,0.60
2022-10-19T12:49:50.899Z,0.50
2022-10-19T12:52:45.058Z,0.60
2022-10-19T12:55:15.629Z,0.50
2022-10-19T12:57:48.236Z,0.60
2022-10-19T13:00:26.755Z,0.50
2022-10-19T13:03:20.426Z,0.60
2022-10-19T13:06:05.150Z,0.68
2022-10-19T13:08:41.276Z,0.70
2022-10-19T13:11:16.240Z,1.02
2022-10-19T13:13:55.737Z,0.60
2022-10-19T13:16:32.429Z,0.65
2022-10-19T13:19:00.354Z,0.60
2022-10-19T13:21:50.806Z,0.60
2022-10-19T13:24:24.385Z,0.90
2022-10-19T13:27:04.185Z,2.00
2022-10-19T13:29:38.450Z,2.60
2022-10-19T13:32:37.244Z,1.40
2022-10-19T13:35:26.463Z,0.85
2022-10-19T13:38:24.356Z,0.80
2022-10-19T13:40:52.302Z,0.50
2022-10-19T13:43:26.511Z,0.80
2022-10-19T13:46:15.703Z,0.65
2022-10-19T13:48:52.309Z,0.70
2022-10-19T13:51:48.506Z,0.60
2022-10-19T13:54:27.259Z,0.50
2022-10-19T13:57:22.192Z,0.70
2022-10-19T14:00:25.492Z,0.60
2022-10-19T14:03:05.474Z,0.73
2022-10-19T14:06:02.789Z,0.90
2022-10-19T14:08:52.090Z,0.80
2022-10-19T14:11:26.400Z,0.85
2022-10-19T14:14:09.132Z,0.88
2022-10-19T14:19:53.777Z,0.90
2022-10-19T14:22:34.342Z,0.90
2022-10-19T14:25:19.652Z,1.10
2022-10-19T14:27:51.172Z,2.60
2022-10-19T14:30:24.002Z,1.23
2022-10-19T14:32:55.701Z,0.80
2022-10-19T14:35:32.164Z,0.80
2022-10-19T14:38:00.433Z,0.70
2022-10-19T14:43:00.256Z,0.90
2022-10-19T14:45:31.440Z,0.70
2022-10-19T14:48:07.196Z,0.80
2022-10-19T14:50:53.300Z,1.25
2022-10-19T14:53:36.485Z,2.45
2022-10-19T14:56:15.444Z,4.40
2022-10-19T14:58:51.926Z,3.17
2022-10-19T15:01:20.851Z,5.35
2022-10-19T15:06:21.869Z,3.53
2022-10-19T15:11:29.659Z,4.05
2022-10-19T15:14:21.954Z,5.40
2022-10-19T15:16:56.082Z,4.45
2022-10-19T15:19:35.878Z,2.22
2022-10-19T15:22:09.467Z,1.33
2022-10-19T15:24:37.274Z,1.00
2022-10-19T15:27:22.680Z,0.70
2022-10-19T15:30:01.338Z,1.05
2022-10-19T15:32:36.166Z,1.35
2022-10-19T15:35:13.062Z,1.15
2022-10-19T15:37:44.572Z,1.23
2022-10-19T15:40:25.982Z,1.10
2022-10-19T15:42:53.709Z,1.10
2022-10-19T15:45:47.528Z,1.17
2022-10-19T15:48:15.130Z,1.05
2022-10-19T15:50:49.870Z,1.10
2022-10-19T15:53:18.616Z,1.48
2022-10-19T15:55:46.106Z,1.10
2022-10-19T15:58:13.997Z,1.05
2022-10-19T16:00:42.196Z,1.40
2022-10-19T16:03:10.052Z,1.00
2022-10-19T16:05:37.978Z,1.02
2022-10-19T16:08:08.932Z,1.67
2022-10-19T16:10:39.622Z,1.50
2022-10-19T16:13:07.085Z,1.25
2022-10-19T16:15:34.733Z,1.27
2022-10-19T16:18:02.449Z,1.30
2022-10-19T16:20:30.143Z,1.20
2022-10-19T16:22:58.374Z,0.93
2022-10-19T16:25:26.073Z,1.20
2022-10-19T16:27:53.729Z,1.30
2022-10-19T16:30:22.116Z,1.13
2022-10-19T16:32:49.860Z,1.27
2022-10-19T16:35:17.789Z,1.37
2022-10-19T16:37:45.762Z,1.58
2022-10-19T16:40:13.854Z,1.35
2022-10-19T16:42:41.471Z,0.98
2022-10-19T16:45:09.763Z,1.10
2022-10-19T16:47:37.412Z,1.35
2022-10-19T16:50:07.143Z,1.30
2022-10-19T16:52:35.295Z,1.00
2022-10-19T16:55:03.316Z,0.90
2022-10-19T16:57:31.035Z,0.80
2022-10-19T16:59:59.705Z,1.60
2022-10-19T17:02:27.494Z,1.10
2022-10-19T17:04:55.117Z,1.00
2022-10-19T17:07:22.828Z,0.60
2022-10-19T17:09:54.672Z,0.68
2022-10-19T17:12:22.704Z,0.75
2022-10-19T17:14:52.235Z,1.30
2022-10-19T17:17:21.039Z,1.00
2022-10-19T17:19:49.978Z,0.75
2022-10-19T17:22:17.596Z,0.60
2022-10-19T17:24:47.214Z,0.70
2022-10-19T17:27:15.034Z,0.73
2022-10-19T17:29:43.101Z,0.90
2022-10-19T17:32:10.566Z,0.80
2022-10-19T17:34:38.343Z,1.50
2022-10-19T17:37:06.022Z,1.65
2022-10-19T17:39:34.111Z,1.80
2022-10-19T17:42:03.398Z,1.80
2022-10-19T17:47:00.723Z,1.15
2022-10-19T17:54:26.493Z,0.60
2022-10-19T17:56:54.467Z,0.80
2022-10-19T17:59:34.941Z,0.70
2022-10-19T18:02:11.003Z,0.65
2022-10-19T18:04:39.231Z,0.80
2022-10-19T18:07:07.144Z,0.65
2022-10-19T18:09:35.875Z,0.73
2022-10-19T18:12:04.877Z,0.90
2022-10-19T18:14:36.674Z,0.90
2022-10-19T18:17:04.530Z,1.00
2022-10-19T18:19:32.802Z,0.70
2022-10-19T18:22:00.900Z,1.00
2022-10-19T18:24:28.763Z,1.17
2022-10-19T18:26:57.438Z,1.00
2022-10-19T18:29:26.646Z,1.10
2022-10-19T18:34:26.352Z,1.10
2022-10-19T18:36:54.196Z,1.17
2022-10-19T18:39:22.450Z,1.40
2022-10-19T18:41:54.634Z,1.83
2022-10-19T18:44:26.453Z,1.83
2022-10-19T18:46:56.907Z,1.60
2022-10-19T18:51:55.381Z,1.63
2022-10-19T18:54:26.562Z,2.10
2022-10-19T18:56:55.204Z,2.35
2022-10-19T18:59:23.740Z,2.38
2022-10-19T19:01:51.748Z,2.92
2022-10-19T19:04:19.722Z,1.90
2022-10-19T19:06:47.394Z,1.50
2022-10-19T19:09:17.433Z,1.27
2022-10-19T19:11:45.794Z,0.90
2022-10-19T19:14:21.089Z,0.90
2022-10-19T19:16:48.947Z,0.60
2022-10-19T19:19:18.772Z,0.70
2022-10-19T19:21:47.425Z,0.80
2022-10-19T19:24:19.175Z,1.40
2022-10-19T19:26:50.312Z,2.17
2022-10-19T19:29:19.312Z,1.70
2022-10-19T19:34:15.664Z,0.88
2022-10-19T19:36:48.476Z,0.80
2022-10-19T19:39:20.047Z,1.15
2022-10-19T19:41:49.953Z,0.65
2022-10-19T19:44:17.894Z,0.73
2022-10-19T19:46:45.628Z,0.60
2022-10-19T19:51:42.950Z,0.80
2022-10-19T19:54:12.428Z,0.50
2022-10-19T19:56:42.148Z,0.80
2022-10-19T19:59:11.926Z,0.93
2022-10-19T20:01:40.745Z,0.70
2022-10-19T20:04:09.570Z,0.68
2022-10-19T20:06:39.008Z,0.55
2022-10-19T20:09:08.231Z,0.80
2022-10-19T20:11:41.844Z,0.80
2022-10-19T20:14:12.004Z,0.82
2022-10-19T20:16:41.165Z,0.88
2022-10-19T20:19:11.875Z,0.50
2022-10-19T20:21:40.762Z,0.68
2022-10-19T20:24:09.332Z,0.60
2022-10-19T20:26:38.875Z,0.60
2022-10-19T20:29:06.803Z,0.80
2022-10-19T20:31:39.481Z,0.70
2022-10-19T20:34:13.952Z,0.95
2022-10-19T20:36:42.450Z,0.60
2022-10-19T20:41:38.454Z,0.60
2022-10-19T20:44:06.012Z,0.70
2022-10-19T20:46:34.242Z,0.70
2022-10-19T20:49:01.915Z,0.80
2022-10-19T20:51:32.647Z,1.00
2022-10-19T20:54:03.994Z,0.90
2022-10-19T20:56:35.842Z,0.73
2022-10-19T20:59:10.981Z,0.60
2022-10-19T21:01:39.806Z,0.60
2022-10-19T21:04:09.960Z,0.70
2022-10-19T21:06:40.404Z,0.60
2022-10-19T21:09:09.348Z,0.80
2022-10-19T21:11:39.718Z,0.80
2022-10-19T21:14:11.628Z,0.65
2022-10-19T21:16:39.505Z,0.70
2022-10-19T21:19:11.659Z,0.68
2022-10-19T21:21:42.346Z,0.90
2022-10-19T21:24:17.602Z,0.70
2022-10-19T21:26:45.674Z,0.80
2022-10-19T21:29:14.691Z,0.60
2022-10-19T21:34:24.462Z,0.88
2022-10-19T21:36:52.444Z,0.70
2022-10-19T21:39:20.265Z,0.70
2022-10-19T21:41:48.320Z,0.60
2022-10-19T21:44:17.588Z,0.47
2022-10-19T21:46:47.790Z,0.90
2022-10-19T21:49:15.780Z,0.80
2022-10-19T21:51:47.612Z,0.55
2022-10-19T21:54:18.878Z,0.70
2022-10-19T21:56:47.473Z,0.60
2022-10-19T21:59:15.977Z,0.80
2022-10-19T22:01:43.944Z,0.70
2022-10-19T22:04:17.142Z,0.93
2022-10-19T22:06:45.210Z,0.70
2022-10-19T22:09:18.616Z,0.60
2022-10-19T22:11:46.282Z,0.47
2022-10-19T22:14:15.890Z,0.52
2022-10-19T22:16:44.069Z,0.50
2022-10-19T22:19:11.932Z,0.50
2022-10-19T22:21:40.078Z,0.70
2022-10-19T22:24:11.314Z,0.87
2022-10-19T22:26:42.584Z,0.47
2022-10-19T22:29:10.467Z,0.70
2022-10-19T22:31:38.503Z,0.60
2022-10-19T22:34:09.944Z,0.45
2022-10-19T22:36:38.112Z,0.60
2022-10-19T22:39:06.341Z,0.70
2022-10-19T22:41:33.986Z,0.60
2022-10-19T22:44:01.697Z,0.80
2022-10-19T22:46:29.388Z,0.60
2022-10-19T22:48:58.216Z,0.70
2022-10-19T22:51:26.233Z,0.60
2022-10-19T22:53:53.855Z,0.77
2022-10-19T22:56:21.342Z,0.60
2022-10-19T22:58:48.848Z,0.75
2022-10-19T23:01:16.935Z,0.50
2022-10-19T23:03:44.521Z,0.57
2022-10-19T23:06:14.211Z,0.70
2022-10-19T23:08:43.539Z,0.63
2022-10-19T23:11:12.078Z,0.70
2022-10-19T23:13:40.547Z,0.60
2022-10-19T23:16:08.982Z,0.70
2022-10-19T23:18:38.955Z,0.50
2022-10-19T23:21:08.993Z,0.45
2022-10-19T23:23:37.077Z,0.40
2022-10-19T23:26:10.859Z,0.40
2022-10-19T23:28:40.454Z,0.55
2022-10-19T23:31:11.591Z,0.40
2022-10-19T23:33:40.171Z,1.23
2022-10-19T23:36:20.257Z,0.40
2022-10-19T23:38:50.061Z,0.50
2022-10-19T23:41:18.533Z,0.60
2022-10-19T23:43:46.394Z,0.43
2022-10-19T23:46:14.179Z,0.50
2022-10-19T23:48:42.257Z,0.75
2022-10-19T23:51:12.992Z,0.75
2022-10-19T23:53:43.054Z,0.40
2022-10-19T23:56:17.941Z,0.82
2022-10-19T23:58:45.865Z,0.60
